Time;durP1;ratioP1;P1;durP2;ratioP2;P2;SDS_P1;SDS_P2;PMS_P1;PMS_P2;Temp;Humidity;BMP_temperature;BMP_pressure;BME280_temperature;BME280_humidity;BME280_pressure;Samples;Min_cycle;Max_cycle;Signal;HPM_P1;HPM_P2
2022/05/08 00:05:18;;;;;;;32.50;22.40;;;;;;;12.81;83.21;99602.31;4299202;81;21029;-81
2022/05/08 00:11:20;;;;;;;36.88;24.02;;;;;;;12.85;83.23;99597.06;4297733;81;21335;-81
2022/05/08 00:17:21;;;;;;;35.05;24.00;;;;;;;12.86;83.29;99592.38;4301877;82;21050;-81
2022/05/08 00:23:22;;;;;;;33.73;23.05;;;;;;;12.80;83.59;99588.35;4302932;82;21009;-82
2022/05/08 00:29:24;;;;;;;35.38;22.75;;;;;;;12.81;83.69;99582.48;4307272;82;20955;-81
2022/05/08 00:35:26;;;;;;;32.20;21.87;;;;;;;12.86;83.78;99582.16;4310061;81;21075;-81
2022/05/08 00:41:27;;;;;;;31.15;21.65;;;;;;;12.88;83.81;99575.70;4302562;81;20960;-81
2022/05/08 00:47:29;;;;;;;30.57;21.48;;;;;;;12.91;83.94;99574.16;4295620;82;20999;-81
2022/05/08 00:53:37;;;;;;;29.85;21.15;;;;;;;12.86;83.80;99571.77;4296209;81;21614;-81
2022/05/08 00:59:39;;;;;;;30.05;19.92;;;;;;;12.68;84.55;99564.09;4297168;82;21026;-83
2022/05/08 01:05:41;;;;;;;32.65;22.58;;;;;;;12.75;84.93;99561.24;4301304;81;20978;-83
2022/05/08 01:11:42;;;;;;;32.67;22.95;;;;;;;12.74;84.97;99562.39;4307080;81;21026;-81
2022/05/08 01:17:45;;;;;;;32.70;21.60;;;;;;;12.78;85.05;99572.25;4301104;82;21523;-82
2022/05/08 01:23:47;;;;;;;36.40;24.60;;;;;;;12.74;84.90;99574.17;4303905;82;21032;-81
2022/05/08 01:29:48;;;;;;;33.13;23.80;;;;;;;12.54;85.15;99574.91;4310635;81;21044;-81
2022/05/08 01:35:50;;;;;;;38.95;24.10;;;;;;;12.50;86.09;99572.71;4206790;82;21036;-81
2022/05/08 01:41:51;;;;;;;36.38;25.72;;;;;;;12.54;85.96;99576.88;4226337;82;20993;-82
2022/05/08 01:54:12;;;;;;;41.75;27.62;;;;;;;12.46;86.44;99570.52;4145186;83;21063;-83
2022/05/08 02:00:15;;;;;;;41.53;26.77;;;;;;;12.48;86.39;99570.14;4127273;83;21065;-81
2022/05/08 02:06:17;;;;;;;34.20;24.60;;;;;;;12.42;86.98;99568.29;4125787;82;21545;-81
2022/05/08 02:12:19;;;;;;;29.92;22.17;;;;;;;12.49;87.37;99567.02;4122522;84;21513;-83
2022/05/08 02:18:20;;;;;;;31.60;23.27;;;;;;;12.59;87.59;99560.84;4123469;84;21433;-80
2022/05/08 02:24:22;;;;;;;31.50;22.07;;;;;;;12.64;87.74;99555.03;4131396;84;21610;-81
2022/05/08 02:30:25;;;;;;;33.78;23.15;;;;;;;12.65;87.90;99557.97;4137972;82;20967;-81
2022/05/08 02:36:27;;;;;;;33.00;22.58;;;;;;;12.68;87.88;99557.02;4053737;86;21069;-81
2022/05/08 02:42:28;;;;;;;30.62;22.48;;;;;;;12.62;87.76;99562.84;4132696;84;21097;-81
2022/05/08 02:48:30;;;;;;;29.52;21.12;;;;;;;12.60;88.33;99561.65;4122534;83;22196;-82
2022/05/08 02:54:33;;;;;;;34.92;23.75;;;;;;;12.65;88.40;99564.07;4123137;84;21006;-80
2022/05/08 03:00:34;;;;;;;34.98;24.35;;;;;;;12.67;88.49;99568.58;4126834;84;21038;-81
2022/05/08 03:06:36;;;;;;;31.25;22.25;;;;;;;12.65;88.73;99571.70;4131883;84;21074;-81
2022/05/08 03:12:37;;;;;;;32.17;21.85;;;;;;;12.64;88.89;99570.70;4135948;83;21027;-80
2022/05/08 03:18:40;;;;;;;30.00;22.05;;;;;;;12.62;88.49;99571.08;4123465;84;21030;-81
2022/05/08 03:24:42;;;;;;;38.25;25.27;;;;;;;12.52;88.87;99573.71;4127246;84;21602;-80
2022/05/08 03:30:44;;;;;;;39.73;24.85;;;;;;;12.58;89.56;99577.13;4126816;83;21031;-81
2022/05/08 03:36:46;;;;;;;36.73;24.02;;;;;;;12.62;89.12;99571.69;4128527;84;21043;-81
2022/05/08 03:42:47;;;;;;;30.97;23.38;;;;;;;12.61;89.47;99569.52;4130419;83;20991;-80
2022/05/08 03:48:49;;;;;;;39.70;24.77;;;;;;;12.68;89.54;99574.87;4078575;83;202336;-81
2022/05/08 03:54:50;;;;;;;35.08;24.55;;;;;;;12.72;89.67;99582.59;4063658;85;21056;-81
2022/05/08 04:00:52;;;;;;;33.05;24.65;;;;;;;12.75;89.71;99587.34;4054058;85;21141;-81
2022/05/08 04:06:56;;;;;;;37.25;25.10;;;;;;;12.79;89.76;99590.91;4071779;86;21021;-81
2022/05/08 04:12:57;;;;;;;30.45;20.57;;;;;;;12.82;89.56;99601.14;3983787;87;21052;-80
2022/05/08 04:18:58;;;;;;;30.37;20.43;;;;;;;12.74;90.03;99609.89;3987859;87;21540;-81
2022/05/08 04:25:00;;;;;;;30.45;19.65;;;;;;;12.76;90.29;99615.00;4047752;86;21049;-80
2022/05/08 04:31:02;;;;;;;32.83;19.95;;;;;;;12.80;90.33;99615.83;3996309;88;21042;-80
2022/05/08 04:37:04;;;;;;;26.10;19.87;;;;;;;12.84;90.24;99616.67;4050001;86;21033;-81
2022/05/08 04:43:06;;;;;;;24.25;17.67;;;;;;;12.85;90.26;99622.37;4057025;86;21628;-81
2022/05/08 04:49:07;;;;;;;26.57;18.73;;;;;;;12.82;90.51;99623.12;4053199;86;21089;-80
2022/05/08 04:55:09;;;;;;;26.05;19.27;;;;;;;12.87;90.27;99625.54;4044965;86;22053;-81
2022/05/08 05:01:12;;;;;;;27.80;20.30;;;;;;;12.87;90.31;99636.53;4060483;86;21709;-80
2022/05/08 05:07:14;;;;;;;28.55;20.10;;;;;;;12.86;90.90;99640.45;4065808;86;21013;-84
2022/05/08 05:13:16;;;;;;;26.90;18.55;;;;;;;12.88;90.97;99646.34;4058437;86;21113;-80
2022/05/08 05:19:19;;;;;;;26.97;18.12;;;;;;;12.93;91.20;99646.02;4062392;85;21094;-80
2022/05/08 05:25:21;;;;;;;29.57;19.02;;;;;;;13.04;91.15;99650.52;4000447;87;21056;-80
2022/05/08 05:31:22;;;;;;;29.20;19.23;;;;;;;13.01;91.44;99655.39;3998311;86;21042;-79
2022/05/08 05:37:24;;;;;;;30.52;20.60;;;;;;;12.96;91.70;99658.44;4060000;86;21038;-81
2022/05/08 05:43:25;;;;;;;25.75;18.82;;;;;;;12.99;91.90;99657.69;4062966;85;21083;-80
2022/05/08 05:49:27;;;;;;;27.77;19.95;;;;;;;13.14;92.30;99662.20;4028678;86;21135;-81
2022/05/08 05:55:28;;;;;;;27.60;20.17;;;;;;;13.28;92.40;99662.96;4064536;85;21022;-80
2022/05/08 06:01:31;;;;;;;24.45;18.67;;;;;;;13.40;92.38;99675.86;4063363;86;21037;-81
2022/05/08 06:07:37;;;;;;;23.18;17.77;;;;;;;13.49;92.12;99677.72;4063666;86;21089;-81
2022/05/08 06:13:40;;;;;;;26.68;19.35;;;;;;;13.67;92.00;99680.65;4054957;86;21273;-81
2022/05/08 06:19:52;;;;;;;26.87;18.80;;;;;;;13.80;91.80;99681.93;4050162;85;21548;-80
2022/05/08 06:25:57;;;;;;;25.37;18.75;;;;;;;13.84;91.87;99682.16;4057022;86;21173;-82
2022/05/08 06:32:01;;;;;;;29.15;18.55;;;;;;;13.99;92.03;99680.33;4065438;85;21414;-81
2022/05/08 06:38:02;;;;;;;27.37;17.98;;;;;;;14.04;92.05;99674.48;4104326;85;21054;-81
2022/05/08 06:44:04;;;;;;;23.38;17.73;;;;;;;14.20;92.18;99675.00;4094008;85;21012;-81
2022/05/08 06:50:08;;;;;;;23.98;18.02;;;;;;;14.47;91.79;99683.27;4110941;85;21089;-80
2022/05/08 06:56:15;;;;;;;24.23;17.55;;;;;;;14.73;91.51;99685.80;4114744;84;21043;-81
2022/05/08 07:02:16;;;;;;;27.32;18.30;;;;;;;14.89;91.14;99679.97;4120050;84;21076;-81
2022/05/08 07:08:18;;;;;;;23.85;17.90;;;;;;;15.02;91.22;99688.87;4115188;84;21069;-81
2022/05/08 07:14:19;;;;;;;24.25;17.27;;;;;;;15.18;91.12;99692.11;4115287;85;21070;-84
2022/05/08 07:20:21;;;;;;;18.87;15.25;;;;;;;15.32;90.73;99694.11;4122134;85;21090;-82
2022/05/08 07:26:23;;;;;;;23.47;17.70;;;;;;;15.50;90.58;99697.75;4211728;83;21106;-81
2022/05/08 07:32:25;;;;;;;24.65;17.55;;;;;;;15.46;90.35;99695.56;4211208;83;21003;-80
2022/05/08 07:38:30;;;;;;;26.62;18.52;;;;;;;15.76;90.57;99699.36;4173243;83;20989;-81
2022/05/08 07:44:31;;;;;;;23.92;18.92;;;;;;;16.07;89.86;99702.77;4197750;83;21943;-81
2022/05/08 07:50:33;;;;;;;24.87;16.37;;;;;;;16.30;89.17;99703.15;4183385;83;21067;-82
2022/05/08 07:56:34;;;;;;;25.30;17.20;;;;;;;16.42;88.81;99707.68;4180017;83;21020;-81
2022/05/08 08:02:36;;;;;;;21.70;16.85;;;;;;;16.73;88.61;99708.83;4183384;83;21519;-81
2022/05/08 08:08:39;;;;;;;20.95;15.68;;;;;;;17.19;88.05;99706.09;4173273;83;20988;-82
2022/05/08 08:14:40;;;;;;;19.27;13.03;;;;;;;18.00;87.61;99704.28;4174637;83;20997;-82
2022/05/08 08:20:43;;;;;;;15.60;12.10;;;;;;;18.48;86.53;99713.98;4169781;84;20988;-81
2022/05/08 08:26:44;;;;;;;16.07;12.28;;;;;;;18.81;85.15;99706.33;4163420;84;21979;-82
2022/05/08 08:32:47;;;;;;;14.55;11.80;;;;;;;18.86;82.11;99716.98;4055734;86;21133;-81
2022/05/08 08:38:49;;;;;;;14.50;10.63;;;;;;;18.95;81.54;99720.66;4011382;87;21065;-82
2022/05/08 08:51:12;;;;;;;14.80;10.35;;;;;;;19.13;73.97;99718.45;4049796;86;21054;-82
2022/05/08 08:57:13;;;;;;;12.75;8.88;;;;;;;19.52;77.52;99713.23;4056963;86;21022;-82
2022/05/08 09:03:25;;;;;;;11.22;8.73;;;;;;;20.09;75.64;99722.32;4042396;87;21064;-82
2022/05/08 09:09:27;;;;;;;11.05;8.48;;;;;;;19.70;69.48;99723.50;4042312;86;21013;-82
2022/05/08 09:15:34;;;;;;;11.12;7.90;;;;;;;19.54;67.44;99722.73;4049301;86;21015;-82
2022/05/08 09:21:54;;;;;;;7.70;6.70;;;;;;;19.95;66.80;99728.09;4071473;86;21542;-82
2022/05/08 09:28:02;;;;;;;7.95;7.15;;;;;;;21.02;64.94;99723.89;4057296;86;21009;-81
2022/05/08 09:34:03;;;;;;;11.80;7.03;;;;;;;21.87;67.93;99717.33;4088688;85;22244;-82
2022/05/08 09:40:19;;;;;;;10.55;7.28;;;;;;;22.88;66.48;99716.01;4105376;85;21051;-82
2022/05/08 09:46:23;;;;;;;7.80;6.22;;;;;;;23.23;64.39;99705.22;4032407;86;21077;-83
2022/05/08 09:52:26;;;;;;;7.80;6.45;;;;;;;23.54;64.39;99703.53;4079652;86;21045;-82
2022/05/08 09:58:29;;;;;;;8.78;6.17;;;;;;;23.70;63.16;99704.84;4067172;86;21081;-84
2022/05/08 10:04:35;;;;;;;8.65;5.90;;;;;;;24.18;62.15;99694.73;4078395;85;21064;-82
2022/05/08 10:17:04;;;;;;;6.53;5.50;;;;;;;23.10;60.50;99686.24;4198308;83;21031;-82
2022/05/08 10:23:06;;;;;;;9.28;5.75;;;;;;;23.31;59.75;99680.08;4168633;84;21106;-83
2022/05/08 10:29:17;;;;;;;6.78;5.10;;;;;;;24.16;58.03;99681.83;4211170;82;21003;-85
2022/05/08 10:35:23;;;;;;;6.78;5.42;;;;;;;24.99;55.98;99672.34;4190440;83;20973;-82
2022/05/08 10:41:45;;;;;;;6.60;5.53;;;;;;;24.90;51.71;99680.66;4181180;83;21587;-82
2022/05/08 10:47:46;;;;;;;8.30;5.62;;;;;;;24.73;50.00;99667.31;4181195;83;21031;-82
2022/05/08 10:53:49;;;;;;;5.08;4.58;;;;;;;25.01;43.56;99664.25;4175173;83;21595;-81
2022/05/08 10:59:50;;;;;;;6.35;5.05;;;;;;;25.01;47.02;99659.28;4197354;84;20988;-83
2022/05/08 11:05:53;;;;;;;5.25;4.22;;;;;;;25.02;48.04;99653.84;4182345;83;21028;-83
2022/05/08 11:11:54;;;;;;;5.22;4.00;;;;;;;25.71;45.84;99645.38;4152149;83;21012;-81
2022/05/08 11:18:03;;;;;;;4.92;4.00;;;;;;;26.07;44.37;99643.52;4163073;84;21100;-82
2022/05/08 11:24:05;;;;;;;4.75;4.08;;;;;;;25.86;46.28;99633.13;4178618;83;21481;-85
2022/05/08 11:30:09;;;;;;;5.40;3.98;;;;;;;25.14;46.30;99633.36;4190223;83;21594;-84
2022/05/08 11:36:11;;;;;;;6.87;3.83;;;;;;;24.90;43.60;99635.84;4176961;84;21075;-82
2022/05/08 11:42:19;;;;;;;7.42;4.15;;;;;;;24.36;42.24;99627.78;4186465;83;21107;-81
2022/05/08 11:48:20;;;;;;;5.62;4.05;;;;;;;24.32;45.15;99614.52;4056631;86;21056;-83
2022/05/08 11:54:30;;;;;;;5.87;4.17;;;;;;;24.47;43.15;99613.41;4020697;86;21972;-82
2022/05/08 12:00:32;;;;;;;4.33;3.90;;;;;;;24.40;42.94;99610.23;4013402;87;21585;-83
2022/05/08 12:06:34;;;;;;;7.20;4.20;;;;;;;24.46;44.30;99608.42;4014683;87;21041;-83
2022/05/08 12:12:38;;;;;;;8.00;4.33;;;;;;;24.35;44.46;99606.61;3980221;87;21066;-82
2022/05/08 12:19:11;;;;;;;5.83;4.62;;;;;;;24.22;43.10;99607.89;4092592;86;22022;-83
2022/05/08 12:25:12;;;;;;;6.40;4.45;;;;;;;23.63;43.92;99596.68;4201280;83;21047;-82
2022/05/08 12:31:14;;;;;;;6.25;4.10;;;;;;;23.99;42.90;99602.06;4201340;83;20992;-82
2022/05/08 12:37:17;;;;;;;9.95;4.60;;;;;;;23.48;42.84;99596.34;4203188;83;21086;-83
2022/05/08 12:43:18;;;;;;;7.45;4.70;;;;;;;23.23;42.03;99601.28;4100205;86;21016;-83
2022/05/08 12:49:22;;;;;;;7.62;4.45;;;;;;;23.08;42.12;99588.95;4096998;86;20974;-82
2022/05/08 12:55:23;;;;;;;6.42;4.37;;;;;;;22.72;41.36;99589.81;4052048;86;21066;-81
2022/05/08 13:01:25;;;;;;;5.80;4.33;;;;;;;22.61;42.27;99581.00;4062379;86;21053;-81
2022/05/08 13:07:27;;;;;;;6.60;4.53;;;;;;;22.24;42.97;99584.99;4083306;86;21094;-82
2022/05/08 13:13:34;;;;;;;5.62;4.80;;;;;;;22.19;43.10;99584.89;3938737;88;21063;-82
2022/05/08 13:19:35;;;;;;;5.25;4.75;;;;;;;22.18;43.69;99588.91;4078521;85;21157;-82
2022/05/08 13:25:38;;;;;;;8.83;5.53;;;;;;;21.86;45.05;99590.35;3989104;86;21089;-81
2022/05/08 13:31:41;;;;;;;8.68;5.05;;;;;;;21.70;45.48;99582.75;4075830;86;22083;-81
2022/05/08 13:37:43;;;;;;;8.10;5.10;;;;;;;21.70;46.23;99580.56;3976860;88;21129;-81
2022/05/08 13:43:44;;;;;;;9.25;5.75;;;;;;;21.82;46.79;99575.70;4063736;85;21050;-82
2022/05/08 13:49:46;;;;;;;7.22;4.97;;;;;;;21.57;47.20;99579.08;4060113;85;21597;-81
2022/05/08 13:55:54;;;;;;;5.65;5.10;;;;;;;21.72;48.17;99565.59;3999597;87;21093;-82
2022/05/08 14:01:55;;;;;;;7.45;4.53;;;;;;;21.84;46.25;99567.70;4039523;86;21159;-83
2022/05/08 14:08:00;;;;;;;12.33;5.42;;;;;;;21.94;46.62;99568.66;3985537;87;21066;-82
2022/05/08 14:14:01;;;;;;;6.33;4.47;;;;;;;21.86;46.45;99564.48;4099185;85;21057;-82
2022/05/08 14:20:04;;;;;;;7.05;5.03;;;;;;;22.05;47.00;99556.62;4059811;86;21086;-82
2022/05/08 14:26:06;;;;;;;9.43;5.03;;;;;;;21.83;46.70;99558.39;4065572;85;21402;-82
2022/05/08 14:38:29;;;;;;;7.20;5.20;;;;;;;21.72;48.34;99554.45;3930211;88;22018;-82
2022/05/08 14:44:30;;;;;;;5.75;4.65;;;;;;;21.59;48.89;99561.33;3918578;89;21045;-81
2022/05/08 14:50:33;;;;;;;6.58;5.03;;;;;;;21.60;48.92;99566.27;3968696;88;21115;-82
2022/05/08 14:56:35;;;;;;;5.20;4.70;;;;;;;21.44;48.52;99562.88;3970032;88;21029;-82
2022/05/08 15:02:36;;;;;;;5.45;4.85;;;;;;;21.43;48.31;99557.73;3982799;87;21048;-83
2022/05/08 15:08:37;;;;;;;6.53;4.50;;;;;;;21.43;47.17;99557.14;3983287;87;21082;-82
2022/05/08 15:14:42;;;;;;;5.30;4.30;;;;;;;21.33;47.40;99548.41;3981940;87;21472;-82
2022/05/08 15:20:44;;;;;;;5.75;4.90;;;;;;;21.30;47.93;99555.45;3984456;88;21677;-82
2022/05/08 15:26:46;;;;;;;6.35;4.85;;;;;;;21.19;49.70;99545.20;3985950;88;21056;-81
2022/05/08 15:32:49;;;;;;;6.75;4.72;;;;;;;21.01;49.97;99536.45;3926709;89;22033;-82
2022/05/08 15:38:51;;;;;;;6.33;5.15;;;;;;;21.04;50.24;99531.41;3986511;87;21023;-82
2022/05/08 15:44:54;;;;;;;6.05;4.97;;;;;;;21.00;50.30;99534.89;4114361;85;21019;-83
2022/05/08 15:50:56;;;;;;;6.03;4.90;;;;;;;20.79;51.81;99532.53;4113631;85;21020;-82
2022/05/08 15:56:57;;;;;;;6.17;5.58;;;;;;;20.61;52.38;99529.35;4107865;85;21595;-82
2022/05/08 16:02:59;;;;;;;6.42;4.90;;;;;;;20.61;52.35;99534.28;4121032;85;20992;-83
2022/05/08 16:09:00;;;;;;;6.83;5.45;;;;;;;20.70;52.27;99544.25;4122933;85;21052;-81
2022/05/08 16:27:43;;;;;;;8.18;5.83;;;;;;;20.30;53.69;99554.41;4094155;85;21082;-82
2022/05/08 16:34:05;;;;;;;7.00;5.15;;;;;;;20.06;54.03;99548.84;4115157;85;21061;-82
2022/05/08 16:40:00;;;;;;;6.67;4.80;;;;;;;19.93;54.27;99557.63;4004816;86;21095;-82
2022/05/08 16:46:02;;;;;;;6.87;5.22;;;;;;;19.88;54.61;99565.06;3959050;88;21625;-82
2022/05/08 16:52:04;;;;;;;7.22;5.20;;;;;;;19.76;55.27;99569.81;3958714;88;20994;-82
2022/05/08 16:58:09;;;;;;;6.58;5.00;;;;;;;19.59;55.52;99575.67;3960476;88;21154;-82
2022/05/08 17:04:10;;;;;;;6.03;5.00;;;;;;;19.46;56.20;99582.42;3956347;87;21149;-83
2022/05/08 17:10:12;;;;;;;7.40;5.10;;;;;;;19.33;56.36;99589.75;3959208;88;21008;-82
2022/05/08 17:16:13;;;;;;;4.90;3.95;;;;;;;19.16;56.50;99592.73;3959852;88;21689;-82
2022/05/08 17:22:16;;;;;;;5.70;4.42;;;;;;;19.10;55.55;99598.58;3948175;88;21049;-82
2022/05/08 17:34:40;;;;;;;8.23;4.95;;;;;;;18.76;55.83;99594.48;3957449;87;21097;-82
2022/05/08 17:40:45;;;;;;;6.42;5.10;;;;;;;18.56;55.54;99599.05;4019397;87;21005;-82
2022/05/08 17:46:46;;;;;;;5.25;4.00;;;;;;;18.32;55.42;99605.64;3983817;88;21076;-82
2022/05/08 17:52:48;;;;;;;5.53;3.95;;;;;;;18.26;55.24;99618.38;4013953;87;21033;-82
2022/05/08 17:58:49;;;;;;;10.43;7.35;;;;;;;18.14;55.71;99615.50;4026701;88;21027;-81
2022/05/08 18:11:12;;;;;;;6.85;5.65;;;;;;;17.83;55.47;99638.73;4192745;82;20992;-82
2022/05/08 18:17:16;;;;;;;7.53;6.05;;;;;;;17.50;55.81;99667.05;4205243;84;21000;-82
2022/05/08 18:23:19;;;;;;;9.05;5.72;;;;;;;17.39;56.84;99667.67;4079970;85;20970;-81
2022/05/08 18:29:20;;;;;;;9.00;5.42;;;;;;;17.31;57.48;99668.10;4080770;85;21021;-82
2022/05/08 18:35:23;;;;;;;8.30;5.83;;;;;;;17.16;58.29;99679.23;4073888;85;21117;-82
2022/05/08 18:41:25;;;;;;;8.35;6.47;;;;;;;17.04;59.51;99681.66;4100780;86;21161;-83
2022/05/08 18:47:27;;;;;;;7.85;5.75;;;;;;;16.85;59.91;99697.36;4226109;82;21027;-82
2022/05/08 18:53:29;;;;;;;5.53;4.85;;;;;;;16.70;60.03;99709.05;4215023;82;21041;-82
2022/05/08 18:59:31;;;;;;;11.45;4.87;;;;;;;16.60;60.51;99714.60;4215383;83;21040;-81
2022/05/08 19:05:32;;;;;;;4.85;3.90;;;;;;;16.43;60.44;99726.41;4223769;82;21750;-81
2022/05/08 19:11:36;;;;;;;7.10;3.77;;;;;;;16.28;60.71;99733.14;4213583;83;20976;-81
2022/05/08 19:17:38;;;;;;;6.20;3.50;;;;;;;16.10;60.78;99739.27;3994936;83;10000182;-81
2022/05/08 19:23:39;;;;;;;4.15;3.42;;;;;;;15.94;60.90;99735.50;4219787;83;21015;-81
2022/05/08 19:29:40;;;;;;;7.47;3.75;;;;;;;15.79;61.36;99749.06;4149990;85;21000;-81
2022/05/08 19:42:05;;;;;;;5.35;3.22;;;;;;;15.49;62.22;99757.66;4174372;83;21007;-81
2022/05/08 19:48:07;;;;;;;6.90;3.22;;;;;;;15.34;62.61;99764.86;4204706;83;21457;-81
2022/05/08 19:54:09;;;;;;;4.03;2.80;;;;;;;15.36;63.80;99772.94;4208767;83;21878;-81
2022/05/08 20:00:12;;;;;;;4.62;3.17;;;;;;;15.38;64.31;99773.96;4175374;83;21082;-81
2022/05/08 20:06:13;;;;;;;4.47;3.30;;;;;;;15.40;64.07;99772.41;4175684;83;21016;-81
2022/05/08 20:12:16;;;;;;;3.50;3.20;;;;;;;15.33;64.24;99776.48;4202251;83;21048;-81
2022/05/08 20:18:17;;;;;;;3.62;3.30;;;;;;;15.14;64.88;99776.00;4220674;83;21019;-81
2022/05/08 20:24:19;;;;;;;3.77;3.05;;;;;;;14.82;65.05;99776.39;4203278;83;21008;-81
2022/05/08 20:30:21;;;;;;;5.08;4.08;;;;;;;14.45;65.75;99769.66;4205872;82;21023;-80
2022/05/08 20:36:22;;;;;;;6.10;4.00;;;;;;;14.29;66.12;99771.07;4220291;83;20972;-81
2022/05/08 20:42:24;;;;;;;3.75;2.98;;;;;;;14.22;66.56;99774.52;4192802;82;20998;-80
2022/05/08 20:48:25;;;;;;;5.80;4.03;;;;;;;14.34;67.46;99785.30;4206148;84;21011;-81
2022/05/08 20:54:28;;;;;;;4.28;3.87;;;;;;;14.33;67.59;99796.09;4193519;83;21012;-81
2022/05/08 21:00:30;;;;;;;4.65;3.70;;;;;;;14.29;68.07;99798.61;4191261;83;21091;-80
2022/05/08 21:12:50;;;;;;;6.97;4.50;;;;;;;14.13;68.81;99802.97;4054405;83;21043;-81
2022/05/08 21:18:51;;;;;;;5.97;4.60;;;;;;;14.01;69.01;99806.00;4216617;83;21468;-81
2022/05/08 21:24:55;;;;;;;8.60;5.80;;;;;;;14.07;69.57;99813.55;4190094;84;21086;-80
2022/05/08 21:30:57;;;;;;;7.67;5.78;;;;;;;14.06;69.66;99819.43;4193609;83;21036;-81
2022/05/08 21:36:58;;;;;;;6.70;4.85;;;;;;;13.98;69.94;99819.14;4195735;82;21032;-82
2022/05/08 21:43:00;;;;;;;8.15;5.62;;;;;;;13.84;70.00;99825.27;4180055;84;21008;-81
2022/05/08 21:49:02;;;;;;;6.50;5.17;;;;;;;13.82;70.67;99829.00;4196779;84;21459;-81
2022/05/08 21:55:04;;;;;;;8.55;5.33;;;;;;;13.82;71.29;99832.33;4056495;86;21024;-81
2022/05/08 22:01:05;;;;;;;7.30;6.25;;;;;;;13.80;71.44;99834.08;3996140;87;21046;-81
2022/05/08 22:07:10;;;;;;;12.33;6.50;;;;;;;13.80;71.67;99829.16;3954589;89;21142;-81
2022/05/08 22:13:11;;;;;;;7.42;5.67;;;;;;;13.74;71.80;99829.28;4175188;83;21579;-81
2022/05/08 22:19:16;;;;;;;7.45;6.20;;;;;;;13.72;71.86;99837.91;4168453;84;21004;-81
2022/05/08 22:25:18;;;;;;;7.72;6.53;;;;;;;13.61;72.85;99837.56;4176679;83;21038;-81
2022/05/08 22:31:19;;;;;;;10.55;6.90;;;;;;;13.63;73.23;99842.13;4053240;86;21076;-84
2022/05/08 22:37:20;;;;;;;8.78;6.83;;;;;;;13.63;73.39;99840.75;4058202;85;21101;-81
2022/05/08 22:43:21;;;;;;;9.10;6.90;;;;;;;13.61;73.96;99836.19;4064927;85;21476;-81
2022/05/08 22:49:23;;;;;;;8.30;6.45;;;;;;;13.53;74.05;99844.17;4028198;86;21123;-81
2022/05/08 22:55:24;;;;;;;8.98;6.62;;;;;;;13.50;74.42;99844.92;3988185;88;21640;-81
2022/05/08 23:01:28;;;;;;;6.85;6.05;;;;;;;13.45;75.01;99848.77;4071878;86;21094;-82
2022/05/08 23:07:29;;;;;;;9.43;7.10;;;;;;;13.46;75.37;99855.07;4077388;85;21120;-80
2022/05/08 23:13:31;;;;;;;7.45;5.97;;;;;;;13.43;75.70;99848.95;4204601;82;21027;-81
2022/05/08 23:19:33;;;;;;;8.28;6.15;;;;;;;13.45;76.29;99855.64;4062761;86;21050;-81
2022/05/08 23:25:38;;;;;;;8.45;7.35;;;;;;;13.53;76.40;99857.33;4056773;86;21029;-81
2022/05/08 23:31:41;;;;;;;9.35;6.42;;;;;;;13.59;76.56;99862.70;4001238;86;21886;-81
2022/05/08 23:37:42;;;;;;;11.73;6.80;;;;;;;13.50;76.79;99858.67;4051076;86;22145;-82
2022/05/08 23:43:43;;;;;;;9.48;7.37;;;;;;;13.54;77.23;99856.75;4059725;86;21145;-81
2022/05/08 23:49:45;;;;;;;8.48;6.85;;;;;;;13.38;77.05;99861.06;4062462;86;20979;-81
2022/05/08 23:55:46;;;;;;;9.08;7.00;;;;;;;13.39;77.25;99859.89;4061366;86;22027;-81
